Time;durP1;ratioP1;P1;durP2;ratioP2;P2;SDS_P1;SDS_P2;PMS_P1;PMS_P2;Temp;Humidity;BMP_temperature;BMP_pressure;BME280_temperature;BME280_humidity;BME280_pressure;Samples;Min_cycle;Max_cycle;Signal;HPM_P1;HPM_P2
2021/07/29 00:01:36;;;;;;;7.60;2.10;;;;;;;15.78;100.00;101008.56;5213506;28;20051;-63
2021/07/29 00:04:06;;;;;;;10.80;2.30;;;;;;;15.83;100.00;101017.97;5221041;28;20112;-63
2021/07/29 00:06:36;;;;;;;6.78;2.10;;;;;;;15.83;100.00;101013.38;5211140;28;20032;-63
2021/07/29 00:09:07;;;;;;;9.57;2.22;;;;;;;15.90;100.00;101008.00;5215556;28;20437;-64
2021/07/29 00:11:37;;;;;;;10.93;2.17;;;;;;;15.89;100.00;101009.06;5215571;28;20031;-64
2021/07/29 00:14:08;;;;;;;6.28;2.10;;;;;;;15.94;100.00;101007.44;5209218;28;20100;-63
2021/07/29 00:16:47;;;;;;;8.75;2.53;;;;;;;15.95;100.00;101014.50;5209914;28;20112;-63
2021/07/29 00:19:18;;;;;;;5.93;2.05;;;;;;;15.94;100.00;101009.28;5213956;28;20383;-64
2021/07/29 00:21:48;;;;;;;7.60;2.47;;;;;;;15.91;100.00;101010.50;5215846;28;20021;-63
2021/07/29 00:24:19;;;;;;;12.13;2.58;;;;;;;15.92;100.00;100998.69;5212692;28;20166;-64
2021/07/29 00:26:49;;;;;;;10.00;2.25;;;;;;;15.98;100.00;100992.47;5209537;28;20479;-63
2021/07/29 00:29:20;;;;;;;9.35;2.38;;;;;;;15.96;100.00;100994.53;5227047;23;20044;-78
2021/07/29 00:31:50;;;;;;;9.15;2.00;;;;;;;15.94;100.00;101012.84;5245140;28;20036;-79
2021/07/29 00:34:21;;;;;;;12.70;2.22;;;;;;;15.95;100.00;101000.13;5238734;28;20084;-78
2021/07/29 00:36:51;;;;;;;9.25;2.20;;;;;;;15.95;100.00;101003.69;5224648;28;20386;-78
2021/07/29 00:39:22;;;;;;;15.82;2.55;;;;;;;15.92;100.00;100997.84;5224361;28;20474;-80
2021/07/29 00:41:52;;;;;;;10.88;2.40;;;;;;;15.87;100.00;100997.59;5224661;28;20037;-79
2021/07/29 00:44:23;;;;;;;5.72;1.80;;;;;;;15.80;100.00;100992.97;5224547;28;20052;-78
2021/07/29 00:46:53;;;;;;;7.50;1.90;;;;;;;15.73;100.00;100996.66;5224576;28;20468;-79
2021/07/29 00:49:24;;;;;;;7.47;2.45;;;;;;;15.70;100.00;100991.63;5223230;28;20475;-79
2021/07/29 00:51:54;;;;;;;9.25;2.10;;;;;;;15.59;100.00;100992.16;5224494;28;20052;-79
2021/07/29 00:54:32;;;;;;;10.40;2.45;;;;;;;15.50;100.00;100996.84;5224099;28;20033;-79
2021/07/29 00:57:03;;;;;;;14.05;2.55;;;;;;;15.54;100.00;101000.84;5224471;28;20518;-79
2021/07/29 00:59:34;;;;;;;18.17;2.50;;;;;;;15.49;100.00;100989.78;5224122;28;20060;-78
2021/07/29 01:02:05;;;;;;;7.15;2.38;;;;;;;15.60;100.00;100999.22;5223746;28;20094;-80
2021/07/29 01:04:35;;;;;;;9.15;2.90;;;;;;;15.53;100.00;101004.59;5223921;28;20029;-78
2021/07/29 01:07:06;;;;;;;11.75;2.65;;;;;;;15.39;100.00;100990.09;5210801;28;20040;-78
2021/07/29 01:09:38;;;;;;;8.05;2.30;;;;;;;15.28;100.00;100996.03;5224289;28;20033;-79
2021/07/29 01:12:09;;;;;;;11.90;2.53;;;;;;;15.28;100.00;100998.75;5224291;28;20031;-78
2021/07/29 01:14:39;;;;;;;8.68;2.50;;;;;;;15.26;100.00;100990.84;5223805;28;20029;-78
2021/07/29 01:17:10;;;;;;;13.15;2.42;;;;;;;15.18;100.00;100993.66;5223919;28;20017;-79
2021/07/29 01:19:40;;;;;;;10.88;2.60;;;;;;;15.22;100.00;100997.66;5224117;28;20021;-79
2021/07/29 01:22:11;;;;;;;8.82;2.00;;;;;;;15.17;100.00;100993.84;5200627;28;20116;-79
2021/07/29 01:24:41;;;;;;;9.50;2.15;;;;;;;15.18;100.00;100998.22;5216256;28;20029;-78
2021/07/29 01:27:12;;;;;;;11.30;2.60;;;;;;;15.17;100.00;100996.56;5224014;28;20048;-78
2021/07/29 01:29:42;;;;;;;9.38;2.60;;;;;;;15.18;100.00;101000.94;5223460;28;20086;-78
2021/07/29 01:32:13;;;;;;;8.32;2.25;;;;;;;15.23;100.00;100996.63;5224256;28;20183;-78
2021/07/29 01:34:44;;;;;;;9.98;3.25;;;;;;;15.24;100.00;101000.16;5223609;28;20029;-79
2021/07/29 01:37:15;;;;;;;10.55;2.38;;;;;;;15.19;100.00;100989.09;5223555;28;20040;-78
2021/07/29 01:39:45;;;;;;;7.10;2.30;;;;;;;15.25;100.00;100991.84;5223291;28;20487;-79
2021/07/29 01:42:16;;;;;;;9.27;2.30;;;;;;;15.31;100.00;101001.03;5223744;28;20103;-78
2021/07/29 01:44:47;;;;;;;11.88;2.60;;;;;;;15.35;100.00;100990.69;5223363;28;20021;-78
2021/07/29 01:47:17;;;;;;;7.05;2.42;;;;;;;15.32;100.00;100993.78;5223906;28;20025;-79
2021/07/29 01:49:48;;;;;;;8.38;2.22;;;;;;;15.22;100.00;100989.53;5223032;28;20021;-78
2021/07/29 01:52:18;;;;;;;15.25;2.70;;;;;;;15.23;100.00;100993.06;5223811;28;20021;-78
2021/07/29 01:55:00;;;;;;;9.20;2.50;;;;;;;15.22;100.00;100986.00;5223865;28;20445;-78
2021/07/29 01:57:30;;;;;;;13.40;2.90;;;;;;;15.14;100.00;100995.06;5223854;28;20064;-78
2021/07/29 02:00:01;;;;;;;15.95;2.70;;;;;;;15.07;100.00;100993.34;5226531;28;20390;-78
2021/07/29 02:02:39;;;;;;;10.15;2.30;;;;;;;15.00;100.00;100995.94;5200084;28;20115;-78
2021/07/29 02:05:10;;;;;;;13.38;2.83;;;;;;;15.00;100.00;101001.34;5235907;28;20440;-78
2021/07/29 02:07:40;;;;;;;10.05;2.25;;;;;;;15.00;100.00;100999.47;5214720;28;20033;-79
2021/07/29 02:10:11;;;;;;;9.13;2.72;;;;;;;14.98;100.00;100989.91;5227881;28;20245;-78
2021/07/29 02:12:41;;;;;;;10.18;2.65;;;;;;;14.93;100.00;100997.75;5226390;28;20025;-79
2021/07/29 02:15:12;;;;;;;10.50;2.85;;;;;;;14.86;100.00;101004.94;5207891;28;20470;-79
2021/07/29 02:17:43;;;;;;;9.88;2.70;;;;;;;14.90;100.00;101014.34;5227591;28;20029;-79
2021/07/29 02:20:14;;;;;;;7.25;2.17;;;;;;;14.90;100.00;101022.44;5227398;28;20103;-78
2021/07/29 02:22:45;;;;;;;7.63;2.72;;;;;;;14.83;100.00;101008.88;5209685;28;20435;-78
2021/07/29 02:25:15;;;;;;;12.70;2.80;;;;;;;14.83;100.00;101010.72;5227117;28;20025;-78
2021/07/29 02:27:46;;;;;;;9.90;2.50;;;;;;;14.79;100.00;101010.25;5227375;28;20387;-78
2021/07/29 02:30:17;;;;;;;11.43;2.78;;;;;;;14.76;100.00;101011.50;5227214;28;20037;-78
2021/07/29 02:32:47;;;;;;;8.00;2.17;;;;;;;14.68;100.00;101014.28;5209477;28;20082;-78
2021/07/29 02:35:18;;;;;;;11.93;2.75;;;;;;;14.60;100.00;101019.78;5227169;28;20032;-78
2021/07/29 02:37:48;;;;;;;9.15;2.85;;;;;;;14.61;100.00;101015.22;5227394;28;20021;-78
2021/07/29 02:40:19;;;;;;;7.40;2.40;;;;;;;14.63;100.00;101016.72;5227069;28;20116;-78
2021/07/29 02:42:49;;;;;;;9.80;3.10;;;;;;;14.62;100.00;101016.91;5227159;28;20079;-78
2021/07/29 02:45:20;;;;;;;7.68;2.22;;;;;;;14.56;100.00;101015.81;5227232;28;20036;-78
2021/07/29 02:47:50;;;;;;;9.18;2.55;;;;;;;14.54;100.00;101019.72;5226915;28;20447;-78
2021/07/29 02:50:21;;;;;;;15.82;2.63;;;;;;;14.50;100.00;101020.06;5226855;28;20044;-79
2021/07/29 02:52:51;;;;;;;10.15;2.60;;;;;;;14.54;100.00;101022.41;5226655;28;20116;-78
2021/07/29 02:55:22;;;;;;;5.95;2.30;;;;;;;14.55;100.00;101016.81;5226782;28;20025;-78
2021/07/29 02:57:52;;;;;;;10.45;3.42;;;;;;;14.56;100.00;101025.75;5226657;28;20424;-79
2021/07/29 03:00:23;;;;;;;9.88;2.72;;;;;;;14.54;100.00;101020.53;5226670;28;20452;-79
2021/07/29 03:02:53;;;;;;;8.93;2.60;;;;;;;14.52;100.00;101017.22;5225976;28;20383;-78
2021/07/29 03:05:24;;;;;;;13.63;3.25;;;;;;;14.47;100.00;101027.69;5224898;28;20020;-78
2021/07/29 03:07:54;;;;;;;12.07;2.67;;;;;;;14.50;100.00;101035.44;5214686;28;20115;-78
2021/07/29 03:10:24;;;;;;;13.82;2.38;;;;;;;14.57;100.00;101032.84;5225184;28;20051;-79
2021/07/29 03:12:55;;;;;;;11.80;2.80;;;;;;;14.45;100.00;101033.25;5208320;28;20031;-78
2021/07/29 03:15:25;;;;;;;12.25;2.45;;;;;;;14.38;100.00;101043.16;5207724;28;20060;-78
2021/07/29 03:17:57;;;;;;;11.50;2.75;;;;;;;14.37;100.00;101044.19;5208919;28;20269;-78
2021/07/29 03:20:28;;;;;;;11.52;2.70;;;;;;;14.24;100.00;101044.81;5226109;28;20028;-78
2021/07/29 03:22:59;;;;;;;9.23;2.20;;;;;;;14.24;100.00;101049.38;5207615;28;20064;-78
2021/07/29 03:25:29;;;;;;;6.40;2.50;;;;;;;14.29;100.00;101049.66;5226224;28;20083;-77
2021/07/29 03:28:00;;;;;;;14.00;3.63;;;;;;;14.29;100.00;101056.91;5226138;28;20033;-78
2021/07/29 03:30:31;;;;;;;13.90;2.50;;;;;;;14.29;100.00;101060.44;5225891;28;20025;-78
2021/07/29 03:33:02;;;;;;;15.75;2.80;;;;;;;14.22;100.00;101052.25;5226104;28;20025;-77
2021/07/29 03:35:32;;;;;;;6.85;2.35;;;;;;;14.15;100.00;101056.72;5226155;28;20025;-78
2021/07/29 03:38:04;;;;;;;8.50;2.78;;;;;;;14.07;100.00;101054.13;5226062;28;20036;-80
2021/07/29 03:40:35;;;;;;;13.00;2.40;;;;;;;14.06;100.00;101047.06;5226061;28;20513;-78
2021/07/29 03:43:07;;;;;;;13.27;2.72;;;;;;;14.11;100.00;101054.59;5225748;28;20074;-77
2021/07/29 03:45:41;;;;;;;13.45;2.97;;;;;;;14.08;100.00;101054.94;5208230;28;20029;-78
2021/07/29 03:48:11;;;;;;;14.48;2.72;;;;;;;14.01;100.00;101057.56;5225777;28;20270;-77
2021/07/29 03:50:42;;;;;;;13.48;2.67;;;;;;;13.93;100.00;101057.63;5225359;28;20079;-79
2021/07/29 03:53:12;;;;;;;11.70;3.17;;;;;;;13.83;100.00;101054.34;5225787;28;20112;-78
2021/07/29 03:55:44;;;;;;;11.77;2.88;;;;;;;13.75;100.00;101055.25;5226162;28;20060;-77
2021/07/29 03:58:15;;;;;;;9.23;2.65;;;;;;;13.84;100.00;101054.16;5226315;28;20032;-79
2021/07/29 04:00:45;;;;;;;15.73;3.05;;;;;;;13.82;100.00;101050.81;5226673;28;20045;-78
2021/07/29 04:03:16;;;;;;;10.43;2.40;;;;;;;13.79;100.00;101047.63;5226268;28;20029;-78
2021/07/29 04:05:46;;;;;;;8.95;2.45;;;;;;;13.85;100.00;101049.59;5221439;28;20384;-78
2021/07/29 04:08:17;;;;;;;13.00;3.13;;;;;;;13.84;100.00;101047.91;5217616;28;20076;-77
2021/07/29 04:10:47;;;;;;;10.73;2.75;;;;;;;13.78;100.00;101054.06;5225745;28;20033;-78
2021/07/29 04:13:18;;;;;;;9.00;2.47;;;;;;;13.76;100.00;101053.41;5225251;28;20108;-78
2021/07/29 04:15:59;;;;;;;9.25;2.08;;;;;;;13.69;100.00;101054.09;5224942;28;20029;-78
2021/07/29 04:18:32;;;;;;;11.60;3.00;;;;;;;13.68;100.00;101049.75;5225486;28;20056;-78
2021/07/29 04:21:02;;;;;;;7.70;2.53;;;;;;;13.70;100.00;101058.50;5225716;28;20017;-78
2021/07/29 04:23:33;;;;;;;11.27;2.28;;;;;;;13.66;100.00;101049.09;5224995;28;20410;-78
2021/07/29 04:26:03;;;;;;;21.92;2.75;;;;;;;13.73;100.00;101052.72;5225543;28;20033;-78
2021/07/29 04:28:34;;;;;;;11.52;2.33;;;;;;;13.71;100.00;101051.25;5207278;28;20130;-79
2021/07/29 04:31:04;;;;;;;12.40;2.83;;;;;;;13.73;100.00;101060.00;5225003;28;20056;-79
2021/07/29 04:33:35;;;;;;;18.20;3.05;;;;;;;13.81;100.00;101062.63;5224905;28;20120;-78
2021/07/29 04:36:06;;;;;;;11.75;2.47;;;;;;;13.76;100.00;101073.13;5225240;28;20025;-78
2021/07/29 04:38:36;;;;;;;8.70;2.45;;;;;;;13.72;100.00;101066.41;5224475;28;20664;-78
2021/07/29 04:41:07;;;;;;;20.80;3.05;;;;;;;13.76;100.00;101072.28;5224404;28;20025;-82
2021/07/29 04:43:37;;;;;;;11.18;2.53;;;;;;;13.72;100.00;101072.63;5224500;28;20017;-79
2021/07/29 04:46:07;;;;;;;21.15;2.80;;;;;;;13.66;100.00;101070.66;5224777;28;20426;-78
2021/07/29 04:48:38;;;;;;;12.95;2.70;;;;;;;13.61;100.00;101069.53;5225067;28;20029;-78
2021/07/29 04:51:08;;;;;;;12.43;3.40;;;;;;;13.57;100.00;101070.91;5225202;28;20021;-78
2021/07/29 04:53:39;;;;;;;10.75;2.15;;;;;;;13.63;100.00;101067.47;5225550;28;20043;-79
2021/07/29 04:56:09;;;;;;;14.90;2.58;;;;;;;13.64;100.00;101070.00;5207714;28;20379;-78
2021/07/29 04:58:40;;;;;;;16.70;3.00;;;;;;;13.71;100.00;101070.13;5225478;28;20065;-77
2021/07/29 05:01:10;;;;;;;12.30;2.25;;;;;;;13.81;100.00;101069.88;5224236;28;20117;-78
2021/07/29 05:03:41;;;;;;;15.57;2.40;;;;;;;13.88;100.00;101074.34;5223836;28;20506;-77
2021/07/29 05:06:12;;;;;;;11.15;3.13;;;;;;;14.00;100.00;101074.72;5216194;28;20029;-78
2021/07/29 05:08:43;;;;;;;11.80;2.88;;;;;;;14.01;100.00;101073.75;5218892;28;20021;-78
2021/07/29 05:11:13;;;;;;;14.40;2.25;;;;;;;14.05;100.00;101077.72;5224020;28;20521;-78
2021/07/29 05:13:44;;;;;;;12.82;2.95;;;;;;;14.05;100.00;101077.72;5223838;28;20021;-78
2021/07/29 05:16:14;;;;;;;12.07;3.25;;;;;;;14.22;100.00;101073.84;5224015;28;20125;-77
2021/07/29 05:18:45;;;;;;;9.10;2.25;;;;;;;14.37;100.00;101086.53;5224079;28;20491;-78
2021/07/29 05:21:15;;;;;;;11.85;3.25;;;;;;;14.40;100.00;101080.75;5224132;28;20028;-79
2021/07/29 05:23:46;;;;;;;10.27;2.75;;;;;;;14.52;100.00;101092.81;5223851;28;20013;-78
2021/07/29 05:26:18;;;;;;;15.02;2.47;;;;;;;14.70;100.00;101092.41;5224134;28;20039;-78
2021/07/29 05:28:48;;;;;;;16.80;2.85;;;;;;;14.68;100.00;101081.81;5223958;28;20086;-78
2021/07/29 05:31:19;;;;;;;12.18;2.83;;;;;;;14.77;100.00;101094.19;5224268;28;20488;-79
2021/07/29 05:33:49;;;;;;;14.68;2.60;;;;;;;15.21;100.00;101092.41;5224186;28;20387;-79
2021/07/29 05:36:20;;;;;;;16.30;3.38;;;;;;;15.76;100.00;101097.19;5225109;28;20028;-79
2021/07/29 05:38:50;;;;;;;12.05;2.58;;;;;;;16.74;100.00;101105.41;5224703;28;20072;-78
2021/07/29 05:41:21;;;;;;;11.93;2.42;;;;;;;17.60;100.00;101094.84;5223980;28;20400;-79
2021/07/29 05:43:51;;;;;;;9.63;1.90;;;;;;;18.67;100.00;101107.34;5224435;28;20078;-79
2021/07/29 05:46:23;;;;;;;7.13;1.65;;;;;;;19.05;100.00;101098.47;5225283;28;20075;-78
2021/07/29 05:48:54;;;;;;;10.73;1.90;;;;;;;19.83;100.00;101104.53;5225116;28;20479;-80
2021/07/29 05:51:24;;;;;;;9.88;2.30;;;;;;;19.93;100.00;101106.78;5224185;28;20040;-78
2021/07/29 05:53:54;;;;;;;13.48;2.70;;;;;;;19.31;100.00;101095.63;5224442;28;20029;-79
2021/07/29 05:56:25;;;;;;;9.00;2.17;;;;;;;19.06;100.00;101100.97;5224301;28;20028;-78
2021/07/29 05:58:55;;;;;;;12.23;2.67;;;;;;;20.11;100.00;101112.25;5224696;28;20029;-79
2021/07/29 06:01:26;;;;;;;12.43;2.35;;;;;;;20.05;100.00;101115.03;5224419;28;20025;-77
2021/07/29 06:03:56;;;;;;;12.45;2.65;;;;;;;19.79;100.00;101108.75;5205903;28;20029;-79
2021/07/29 06:06:27;;;;;;;12.43;2.42;;;;;;;19.81;100.00;101106.63;5214384;28;20025;-79
2021/07/29 06:08:58;;;;;;;14.88;2.50;;;;;;;20.39;100.00;101110.97;5221360;28;20365;-79
2021/07/29 06:11:28;;;;;;;13.18;2.20;;;;;;;20.64;100.00;101113.69;5224178;28;20056;-77
2021/07/29 06:14:00;;;;;;;3.90;1.60;;;;;;;21.20;100.00;101115.31;5224280;28;20671;-79
2021/07/29 06:16:31;;;;;;;15.15;2.60;;;;;;;20.10;100.00;101112.47;5224178;28;20029;-79
2021/07/29 06:19:09;;;;;;;7.30;2.20;;;;;;;19.79;100.00;101114.19;5224094;28;20036;-79
2021/07/29 06:21:40;;;;;;;11.13;2.08;;;;;;;20.10;100.00;101126.94;5223940;28;20033;-79
2021/07/29 06:24:10;;;;;;;10.23;2.42;;;;;;;21.32;100.00;101126.28;5223783;28;20017;-78
2021/07/29 06:26:41;;;;;;;15.27;2.28;;;;;;;20.91;100.00;101134.13;5223427;28;20033;-78
2021/07/29 06:29:11;;;;;;;9.18;2.63;;;;;;;20.33;100.00;101126.31;5220687;28;20036;-78
2021/07/29 06:31:42;;;;;;;8.45;2.20;;;;;;;20.09;100.00;101124.44;5208608;28;20398;-79
2021/07/29 06:34:12;;;;;;;14.13;2.70;;;;;;;19.46;100.00;101127.97;5223137;28;20041;-78
2021/07/29 06:36:43;;;;;;;14.50;2.50;;;;;;;18.93;100.00;101130.94;5223156;28;20031;-79
2021/07/29 06:39:13;;;;;;;14.02;2.70;;;;;;;19.17;100.00;101139.41;5222811;28;20064;-78
2021/07/29 06:41:44;;;;;;;10.07;2.03;;;;;;;19.19;100.00;101140.88;5209236;28;20119;-78
2021/07/29 06:44:14;;;;;;;14.48;3.22;;;;;;;18.35;100.00;101137.09;5222714;28;20029;-78
2021/07/29 06:46:45;;;;;;;14.35;2.85;;;;;;;18.51;100.00;101143.13;5226719;28;20033;-78
2021/07/29 06:49:15;;;;;;;8.48;2.10;;;;;;;18.03;100.00;101140.66;5226755;28;20021;-79
2021/07/29 06:51:46;;;;;;;15.57;3.03;;;;;;;17.86;100.00;101129.34;5227026;28;20059;-79
2021/07/29 06:54:16;;;;;;;14.57;2.83;;;;;;;17.72;100.00;101143.91;5226329;28;20482;-79
2021/07/29 06:56:47;;;;;;;13.20;2.50;;;;;;;17.84;100.00;101137.72;5226893;28;20040;-79
2021/07/29 06:59:17;;;;;;;13.05;2.40;;;;;;;17.82;100.00;101153.38;5226436;28;20025;-82
2021/07/29 07:01:48;;;;;;;13.02;2.83;;;;;;;17.71;100.00;101163.94;5226897;28;20078;-80
2021/07/29 07:04:18;;;;;;;14.30;2.88;;;;;;;17.86;100.00;101167.34;5239869;28;20456;-79
2021/07/29 07:06:49;;;;;;;17.05;3.15;;;;;;;17.92;100.00;101163.81;5226606;28;20037;-77
2021/07/29 07:09:19;;;;;;;10.45;2.25;;;;;;;18.00;100.00;101163.63;5226861;28;20025;-79
2021/07/29 07:11:50;;;;;;;12.88;2.33;;;;;;;18.14;100.00;101166.34;5209388;28;20078;-77
2021/07/29 07:14:20;;;;;;;18.40;2.95;;;;;;;18.30;100.00;101169.47;5227065;28;20415;-77
2021/07/29 07:16:51;;;;;;;14.63;3.30;;;;;;;18.33;100.00;101168.22;5226782;28;20112;-77
2021/07/29 07:19:21;;;;;;;15.38;2.60;;;;;;;18.41;100.00;101170.72;5217051;28;20392;-77
2021/07/29 07:21:52;;;;;;;11.38;2.95;;;;;;;18.18;100.00;101163.00;5226230;28;20033;-80
2021/07/29 07:24:23;;;;;;;9.27;2.40;;;;;;;18.33;100.00;101171.78;5208112;28;20032;-77
2021/07/29 07:26:53;;;;;;;14.00;2.97;;;;;;;18.50;100.00;101164.03;5226165;28;20032;-80
2021/07/29 07:29:24;;;;;;;14.63;3.80;;;;;;;18.76;100.00;101165.91;5225500;28;20033;-78
2021/07/29 07:31:54;;;;;;;12.95;2.75;;;;;;;18.86;100.00;101168.16;5226120;28;20140;-78
2021/07/29 07:34:25;;;;;;;16.60;2.63;;;;;;;19.12;100.00;101176.25;5226025;28;20029;-78
2021/07/29 07:36:56;;;;;;;15.52;2.67;;;;;;;18.86;100.00;101182.59;5226508;28;20413;-80
2021/07/29 07:39:26;;;;;;;13.05;3.55;;;;;;;18.81;100.00;101173.41;5225908;28;20113;-80
2021/07/29 07:41:57;;;;;;;12.93;2.95;;;;;;;18.84;100.00;101178.44;5225837;28;20029;-78
2021/07/29 07:44:27;;;;;;;18.38;3.20;;;;;;;18.98;100.00;101177.34;5225810;28;20522;-78
2021/07/29 07:46:57;;;;;;;9.45;2.17;;;;;;;19.01;100.00;101174.19;5226650;28;20472;-77
2021/07/29 07:49:28;;;;;;;17.33;3.00;;;;;;;19.14;100.00;101184.22;5225614;28;20542;-80
2021/07/29 07:51:59;;;;;;;12.38;3.22;;;;;;;18.97;100.00;101181.09;5225465;28;20021;-79
2021/07/29 07:54:29;;;;;;;17.98;3.08;;;;;;;19.09;100.00;101189.44;5225031;28;20091;-78
2021/07/29 07:57:00;;;;;;;19.77;3.17;;;;;;;19.23;100.00;101182.94;5225221;28;20055;-78
2021/07/29 07:59:35;;;;;;;8.50;2.58;;;;;;;19.00;100.00;101180.69;5225265;28;20154;-81
2021/07/29 08:02:06;;;;;;;10.30;2.80;;;;;;;19.24;100.00;101181.03;5222705;28;20029;-79
2021/07/29 08:04:36;;;;;;;13.18;3.35;;;;;;;18.68;100.00;101176.16;5205028;28;20061;-79
2021/07/29 08:07:07;;;;;;;9.18;2.90;;;;;;;19.13;100.00;101187.97;5223566;28;20051;-79
2021/07/29 08:09:37;;;;;;;11.98;2.33;;;;;;;19.13;100.00;101190.69;5227172;28;20028;-79
2021/07/29 08:12:08;;;;;;;15.05;3.42;;;;;;;18.83;100.00;101188.47;5226038;28;20111;-79
2021/07/29 08:14:39;;;;;;;11.32;2.70;;;;;;;18.67;100.00;101186.16;5230818;28;20102;-79
2021/07/29 08:17:09;;;;;;;11.25;2.42;;;;;;;18.94;100.00;101173.38;5229024;28;20032;-80
2021/07/29 08:19:40;;;;;;;9.32;2.47;;;;;;;19.21;100.00;101186.88;5224998;28;20040;-80
2021/07/29 08:22:10;;;;;;;9.18;2.92;;;;;;;19.41;100.00;101188.47;5225603;28;20025;-80
2021/07/29 08:24:41;;;;;;;13.05;2.60;;;;;;;19.44;100.00;101186.38;5207531;28;20111;-78
2021/07/29 08:27:11;;;;;;;9.75;2.45;;;;;;;19.43;100.00;101188.28;5225613;28;20385;-80
2021/07/29 08:29:42;;;;;;;10.93;2.97;;;;;;;19.54;100.00;101193.03;5211087;28;20083;-80
2021/07/29 08:32:12;;;;;;;14.65;3.00;;;;;;;19.44;100.00;101189.13;5227425;28;20584;-81
2021/07/29 08:34:43;;;;;;;12.32;2.50;;;;;;;19.46;100.00;101185.09;5227698;28;20102;-81
2021/07/29 08:37:13;;;;;;;7.72;2.70;;;;;;;19.64;100.00;101179.00;5227778;28;20025;-77
2021/07/29 08:39:44;;;;;;;12.43;2.90;;;;;;;19.82;100.00;101178.25;5227076;28;20112;-80
2021/07/29 08:42:14;;;;;;;14.25;2.78;;;;;;;19.99;100.00;101173.94;5228883;28;20041;-82
2021/07/29 08:44:45;;;;;;;12.20;2.50;;;;;;;19.55;100.00;101177.53;5229298;28;20021;-80
2021/07/29 08:47:23;;;;;;;14.05;2.50;;;;;;;19.29;100.00;101182.06;5229335;28;20115;-80
2021/07/29 08:49:55;;;;;;;10.85;2.92;;;;;;;19.10;100.00;101182.97;5226682;28;20051;-79
2021/07/29 08:52:25;;;;;;;9.18;2.38;;;;;;;19.02;100.00;101183.19;5225085;28;20020;-78
2021/07/29 08:54:56;;;;;;;13.60;2.88;;;;;;;19.02;100.00;101177.75;5208531;28;20028;-80
2021/07/29 08:57:28;;;;;;;14.45;3.35;;;;;;;19.09;100.00;101193.00;5228613;28;20025;-80
2021/07/29 09:00:05;;;;;;;11.93;2.63;;;;;;;19.34;100.00;101184.13;5227414;28;20029;-81
2021/07/29 09:02:36;;;;;;;10.02;2.40;;;;;;;19.00;100.00;101188.84;5210678;28;20041;-80
2021/07/29 09:05:09;;;;;;;16.77;2.92;;;;;;;19.10;100.00;101188.41;5230509;28;20020;-81
2021/07/29 09:07:40;;;;;;;10.02;2.78;;;;;;;18.97;100.00;101183.00;5231040;28;20431;-79
2021/07/29 09:10:28;;;;;;;15.27;3.00;;;;;;;19.15;100.00;101185.88;5229379;28;20078;-81
2021/07/29 09:13:15;;;;;;;4.55;1.85;;;;;;;19.35;100.00;101172.19;5230644;28;20040;-82
2021/07/29 09:16:06;;;;;;;13.18;2.90;;;;;;;19.51;100.00;101176.28;5229933;28;20043;-79
2021/07/29 09:18:37;;;;;;;10.80;2.33;;;;;;;19.29;100.00;101167.63;5230714;28;20090;-79
2021/07/29 09:21:12;;;;;;;10.40;2.47;;;;;;;19.34;100.00;101182.25;5230277;28;20037;-80
2021/07/29 09:23:43;;;;;;;8.43;2.33;;;;;;;19.59;100.00;101187.81;5230766;28;20032;-80
2021/07/29 09:26:13;;;;;;;14.20;3.03;;;;;;;19.32;100.00;101184.31;5212722;28;20025;-80
2021/07/29 09:28:44;;;;;;;11.63;2.28;;;;;;;19.41;100.00;101187.66;5232436;28;20077;-80
2021/07/29 09:31:19;;;;;;;7.78;2.50;;;;;;;19.46;100.00;101168.78;5231083;28;20047;-79
2021/07/29 09:34:02;;;;;;;11.90;2.70;;;;;;;19.54;100.00;101186.75;5221568;28;20582;-79
2021/07/29 09:36:33;;;;;;;11.30;2.58;;;;;;;19.96;100.00;101181.72;5230022;28;20033;-80
2021/07/29 09:39:21;;;;;;;7.07;2.10;;;;;;;20.27;100.00;101178.94;5227930;28;20094;-80
2021/07/29 09:42:19;;;;;;;11.75;2.72;;;;;;;20.40;100.00;101178.03;5213227;28;20075;-80
2021/07/29 09:44:52;;;;;;;14.18;2.50;;;;;;;20.80;100.00;101186.69;5226481;28;20022;-80
2021/07/29 09:47:23;;;;;;;7.20;2.28;;;;;;;21.05;99.53;101181.16;5199860;28;20026;-80
2021/07/29 09:49:53;;;;;;;8.68;2.42;;;;;;;21.02;100.00;101188.97;5227886;28;20024;-80
2021/07/29 09:52:26;;;;;;;9.40;2.30;;;;;;;20.97;97.92;101180.63;5207535;28;20029;-78
2021/07/29 09:54:57;;;;;;;8.00;2.40;;;;;;;21.02;100.00;101187.06;5224022;28;20056;-79
2021/07/29 09:57:28;;;;;;;7.85;2.10;;;;;;;21.35;96.73;101183.16;5223745;28;20021;-79
2021/07/29 09:59:58;;;;;;;12.48;2.25;;;;;;;21.29;94.98;101181.31;5224077;28;20047;-80
2021/07/29 10:02:31;;;;;;;9.35;2.30;;;;;;;21.41;92.57;101180.34;5205601;28;20447;-77
2021/07/29 10:05:02;;;;;;;6.80;2.03;;;;;;;21.69;94.43;101163.38;5223691;28;20033;-79
2021/07/29 10:07:37;;;;;;;16.73;2.22;;;;;;;21.77;83.26;101177.75;5209933;28;20025;-80
2021/07/29 10:10:09;;;;;;;7.13;2.35;;;;;;;22.21;76.26;101177.28;5223597;28;20029;-80
2021/07/29 10:12:40;;;;;;;9.10;2.42;;;;;;;21.91;77.68;101184.69;5223782;28;20051;-80
2021/07/29 10:15:10;;;;;;;11.90;2.72;;;;;;;21.99;85.88;101178.91;5223689;28;20292;-80
2021/07/29 10:17:45;;;;;;;7.75;2.13;;;;;;;21.90;85.49;101180.28;5224132;28;20104;-79
2021/07/29 10:20:19;;;;;;;;;;;;;;;21.80;84.97;101164.47;5225553;28;20029;-81
2021/07/29 10:23:16;;;;;;;11.45;2.17;;;;;;;21.72;86.22;101168.34;5227785;28;19947;-78
2021/07/29 10:25:52;;;;;;;10.40;2.08;;;;;;;21.89;82.74;101179.47;5218160;28;20086;-79
2021/07/29 10:28:25;;;;;;;6.15;1.70;;;;;;;21.82;83.69;101172.41;5214201;28;20036;-79
2021/07/29 10:30:58;;;;;;;6.70;2.13;;;;;;;21.45;80.90;101175.25;5228150;28;20507;-79
2021/07/29 10:33:29;;;;;;;4.38;2.00;;;;;;;21.78;93.93;101182.13;5228399;28;20032;-80
2021/07/29 10:36:01;;;;;;;8.45;2.42;;;;;;;22.05;78.61;101174.41;5227282;28;20032;-79
2021/07/29 10:38:38;;;;;;;6.28;1.90;;;;;;;21.87;80.14;101187.03;5200378;28;20017;-79
2021/07/29 10:41:08;;;;;;;9.30;2.05;;;;;;;22.14;74.88;101178.47;5226232;28;20395;-80
2021/07/29 10:43:40;;;;;;;6.93;1.65;;;;;;;22.21;80.35;101187.41;5228614;28;20025;-81
2021/07/29 10:46:11;;;;;;;6.32;2.65;;;;;;;22.47;81.27;101176.00;5231270;28;20029;-80
2021/07/29 10:51:13;;;;;;;11.15;2.13;;;;;;;22.51;86.28;101184.56;5231378;28;20036;-80
2021/07/29 10:53:45;;;;;;;8.43;2.58;;;;;;;22.74;76.53;101175.53;5232076;28;20016;-81
2021/07/29 10:56:19;;;;;;;10.30;2.13;;;;;;;22.57;78.06;101182.78;5233129;28;20040;-82
2021/07/29 10:58:52;;;;;;;6.88;1.92;;;;;;;22.66;68.11;101184.94;5212775;28;20445;-83
2021/07/29 11:01:44;;;;;;;9.80;1.80;;;;;;;22.36;63.64;101179.56;5232073;28;20085;-80
2021/07/29 11:04:15;;;;;;;9.23;2.03;;;;;;;21.98;67.81;101186.22;5230671;28;20529;-81
2021/07/29 11:06:58;;;;;;;6.50;1.60;;;;;;;22.10;78.04;101191.75;5219593;28;20160;-81
2021/07/29 11:09:31;;;;;;;11.65;2.28;;;;;;;22.59;74.73;101183.38;5219742;28;20068;-81
2021/07/29 11:12:01;;;;;;;13.48;2.00;;;;;;;22.46;65.39;101182.56;5228808;28;20037;-80
2021/07/29 11:14:34;;;;;;;11.48;1.80;;;;;;;22.37;62.96;101194.91;5227653;28;20017;-82
2021/07/29 11:17:04;;;;;;;4.43;1.85;;;;;;;22.44;65.09;101197.50;5220967;28;20130;-79
2021/07/29 11:19:44;;;;;;;6.93;2.35;;;;;;;22.39;68.30;101181.84;5223419;28;20056;-81
2021/07/29 11:22:15;;;;;;;9.25;1.98;;;;;;;22.26;70.29;101186.69;5226246;28;20025;-81
2021/07/29 11:24:46;;;;;;;8.77;1.88;;;;;;;22.04;63.18;101179.03;5223748;28;20031;-81
2021/07/29 11:27:30;;;;;;;5.32;1.77;;;;;;;22.59;74.16;101177.91;5225722;28;20059;-81
2021/07/29 11:30:03;;;;;;;4.22;1.83;;;;;;;22.68;70.87;101177.31;5225741;28;20025;-81
2021/07/29 11:32:37;;;;;;;9.60;2.30;;;;;;;22.26;66.62;101176.59;5223870;28;20052;-82
2021/07/29 11:35:11;;;;;;;17.45;2.00;;;;;;;22.69;82.12;101167.19;5224748;28;20017;-81
2021/07/29 11:37:44;;;;;;;8.90;2.10;;;;;;;23.06;81.76;101162.31;5225908;28;20060;-82